Terminal Aerodrome Forecast
Issued by NWS

Home | Current Version | Previous Version | Text Only | Print | Product List | Glossary On
Versions: 1 2 3 4 5 6 7 8 9 10 11 12 13 14 15 16 17 18 19 20 21 22 23 24 25 26 27 28 29 30 31 32
000
FTUS41 KGYX 241528 AAG
TAFHIE
TAF AMD
KHIE 241528Z 2415/2512 22004KT P6SM SCT014 BKN035 OVC045
     FM241600 28013G20KT P6SM BKN050
     FM242300 27003KT P6SM OVC250=

USA.gov is the U.S. government's official web portal to all federal, state and local government web resources and services.